Time;durP1;ratioP1;P1;durP2;ratioP2;P2;SDS_P1;SDS_P2;PMS_P1;PMS_P2;Temp;Humidity;BMP_temperature;BMP_pressure;BME280_temperature;BME280_humidity;BME280_pressure;Samples;Min_cycle;Max_cycle;Signal;HPM_P1;HPM_P2
2021/05/17 00:00:53;;;;;;;2.03;1.00;;;15.30;58.90;;;;;;1487331;39;20043;-61
2021/05/17 00:02:16;;;;;;;2.08;1.30;;;15.30;58.90;;;;;;1488068;40;20047;-61
2021/05/17 00:03:42;;;;;;;1.40;1.30;;;15.30;59.00;;;;;;1487482;39;20051;-61
2021/05/17 00:05:05;;;;;;;3.85;1.15;;;15.30;59.10;;;;;;1487725;40;20055;-61
2021/05/17 00:06:26;;;;;;;2.45;1.25;;;15.30;59.00;;;;;;1484015;40;20039;-61
2021/05/17 00:07:47;;;;;;;1.25;1.13;;;15.30;59.00;;;;;;1480798;40;20096;-60
2021/05/17 00:09:08;;;;;;;1.33;1.05;;;15.30;59.10;;;;;;1485861;40;20037;-60
2021/05/17 00:10:29;;;;;;;1.77;1.00;;;15.30;59.10;;;;;;1487694;39;20035;-61
2021/05/17 00:11:51;;;;;;;0.93;0.93;;;15.30;59.10;;;;;;1487638;39;20064;-60
2021/05/17 00:13:12;;;;;;;2.10;1.02;;;15.30;59.10;;;;;;1487835;40;20234;-60
2021/05/17 00:14:34;;;;;;;3.33;1.35;;;15.30;59.20;;;;;;1485812;40;20387;-60
2021/05/17 00:15:55;;;;;;;1.77;1.05;;;15.30;59.30;;;;;;1488161;40;20159;-60
2021/05/17 00:17:16;;;;;;;3.97;1.60;;;15.30;59.40;;;;;;1487664;40;20044;-61
2021/05/17 00:18:37;;;;;;;1.40;1.30;;;15.30;59.40;;;;;;1486915;40;20076;-61
2021/05/17 00:19:58;;;;;;;4.70;1.17;;;15.20;59.40;;;;;;1481706;40;20044;-61
2021/05/17 00:21:20;;;;;;;2.13;1.25;;;15.20;60.00;;;;;;1487546;40;20416;-60
2021/05/17 00:22:42;;;;;;;1.25;1.17;;;15.20;59.60;;;;;;1485871;40;20093;-60
2021/05/17 00:24:04;;;;;;;1.25;1.13;;;15.20;59.60;;;;;;1487215;40;20039;-61
2021/05/17 00:25:27;;;;;;;2.28;1.30;;;15.20;59.80;;;;;;1487577;40;20100;-61
2021/05/17 00:26:48;;;;;;;1.75;1.20;;;15.20;59.80;;;;;;1487661;40;20040;-60
2021/05/17 00:28:10;;;;;;;2.78;1.38;;;15.10;59.90;;;;;;1487451;40;20028;-60
2021/05/17 00:29:31;;;;;;;3.10;1.20;;;15.20;59.90;;;;;;1485927;40;20040;-60
2021/05/17 00:30:52;;;;;;;1.90;1.10;;;15.10;60.00;;;;;;1488047;40;20024;-60
2021/05/17 00:32:13;;;;;;;3.28;1.33;;;15.10;60.00;;;;;;1485558;40;20129;-60
2021/05/17 00:33:34;;;;;;;2.72;1.40;;;15.10;60.20;;;;;;1487512;40;20055;-60
2021/05/17 00:34:55;;;;;;;2.63;1.48;;;15.10;60.30;;;;;;1485952;40;20270;-60
2021/05/17 00:36:17;;;;;;;1.27;1.17;;;15.10;60.30;;;;;;1486637;39;20037;-61
2021/05/17 00:37:38;;;;;;;1.20;1.08;;;15.10;60.40;;;;;;1487399;40;20048;-60
2021/05/17 00:39:00;;;;;;;1.65;1.30;;;15.10;60.50;;;;;;1487217;39;20032;-60
2021/05/17 00:40:22;;;;;;;1.35;0.98;;;15.10;60.70;;;;;;1487555;40;20362;-60
2021/05/17 00:41:43;;;;;;;3.45;1.50;;;15.10;60.90;;;;;;1485949;40;20040;-60
2021/05/17 00:43:07;;;;;;;1.95;1.50;;;15.10;60.90;;;;;;1484915;40;20025;-60
2021/05/17 00:44:28;;;;;;;2.35;1.30;;;15.00;60.90;;;;;;1486886;40;20047;-60
2021/05/17 00:45:49;;;;;;;2.28;1.15;;;15.10;61.00;;;;;;1486612;40;20024;-60
2021/05/17 00:47:13;;;;;;;1.35;1.00;;;15.10;61.00;;;;;;1487693;40;20327;-61
2021/05/17 00:48:35;;;;;;;2.08;1.13;;;15.10;61.00;;;;;;1488081;40;20080;-61
2021/05/17 00:49:57;;;;;;;2.63;1.40;;;15.10;61.00;;;;;;1487620;40;20036;-60
2021/05/17 00:51:19;;;;;;;1.23;1.00;;;15.10;61.00;;;;;;1484842;40;20666;-61
2021/05/17 00:52:40;;;;;;;1.48;0.90;;;15.10;61.00;;;;;;1485935;40;20272;-61
2021/05/17 00:54:02;;;;;;;2.00;1.00;;;15.10;60.90;;;;;;1486865;40;20338;-60
2021/05/17 00:55:25;;;;;;;1.50;1.00;;;15.10;60.80;;;;;;1487307;39;20036;-60
2021/05/17 00:56:46;;;;;;;1.10;1.00;;;15.10;60.90;;;;;;1487654;40;20056;-61
2021/05/17 00:58:08;;;;;;;0.90;0.90;;;15.10;60.90;;;;;;1487838;40;20032;-61
2021/05/17 00:59:29;;;;;;;1.90;0.90;;;15.10;60.90;;;;;;1487525;39;20060;-60
2021/05/17 01:00:50;;;;;;;1.50;1.40;;;15.10;61.00;;;;;;1485589;39;20040;-60
2021/05/17 01:02:10;;;;;;;2.25;1.00;;;15.10;61.00;;;;;;1487479;40;20116;-60
2021/05/17 01:03:32;;;;;;;1.33;1.10;;;15.10;61.10;;;;;;1486773;39;20031;-60
2021/05/17 01:04:53;;;;;;;2.05;0.90;;;15.00;61.10;;;;;;1486761;39;20036;-60
2021/05/17 01:06:18;;;;;;;1.77;0.80;;;15.00;61.10;;;;;;1487612;40;20106;-60
2021/05/17 01:07:45;;;;;;;0.85;0.77;;;15.10;61.20;;;;;;1487699;39;20039;-61
2021/05/17 01:09:08;;;;;;;0.80;0.80;;;15.00;61.00;;;;;;1486497;39;20029;-61
2021/05/17 01:10:31;;;;;;;1.75;1.10;;;15.10;61.10;;;;;;1486086;40;20048;-61
2021/05/17 01:11:57;;;;;;;1.00;0.90;;;15.00;61.10;;;;;;1487150;40;20048;-61
2021/05/17 01:13:19;;;;;;;1.15;0.90;;;15.00;61.20;;;;;;1484971;40;20108;-61
2021/05/17 01:14:40;;;;;;;1.85;0.98;;;15.00;61.00;;;;;;1487347;40;20060;-61
2021/05/17 01:16:02;;;;;;;2.35;1.02;;;15.00;61.10;;;;;;1485504;40;20156;-60
2021/05/17 01:17:25;;;;;;;1.65;0.90;;;15.00;61.10;;;;;;1486694;40;20051;-60
2021/05/17 01:18:48;;;;;;;1.58;0.77;;;15.00;61.10;;;;;;1487031;40;20020;-61
2021/05/17 01:20:17;;;;;;;0.70;0.70;;;15.00;61.10;;;;;;1487832;40;20121;-61
2021/05/17 01:21:40;;;;;;;0.90;0.90;;;15.00;61.20;;;;;;1486892;39;20364;-61
2021/05/17 01:23:30;;;;;;;1.75;0.90;;;15.00;61.10;;;;;;1487400;40;20361;-61
2021/05/17 01:24:49;;;;;;;0.75;0.70;;;15.00;61.20;;;;;;1488091;40;20028;-61
2021/05/17 01:26:11;;;;;;;1.13;0.77;;;15.00;60.90;;;;;;1487397;40;20043;-61
2021/05/17 01:27:34;;;;;;;0.95;0.88;;;15.00;60.80;;;;;;1487025;40;20028;-61
2021/05/17 01:28:58;;;;;;;1.25;0.80;;;15.00;60.90;;;;;;1482345;40;20045;-61
2021/05/17 01:30:21;;;;;;;1.17;0.75;;;14.90;60.90;;;;;;1482663;40;20032;-61
2021/05/17 01:31:42;;;;;;;1.08;0.70;;;15.00;61.00;;;;;;1487014;40;20445;-60
2021/05/17 01:33:05;;;;;;;1.60;0.80;;;14.90;60.80;;;;;;1486662;40;20036;-61
2021/05/17 01:34:27;;;;;;;0.80;0.75;;;14.90;60.80;;;;;;1486463;40;20072;-61
2021/05/17 01:35:48;;;;;;;3.47;0.80;;;15.00;60.90;;;;;;1487972;40;20438;-61
2021/05/17 01:37:09;;;;;;;2.42;0.80;;;14.90;60.80;;;;;;1487950;40;20064;-61
2021/05/17 01:38:31;;;;;;;0.85;0.85;;;14.90;60.80;;;;;;1486651;40;20024;-61
2021/05/17 01:39:53;;;;;;;1.08;0.63;;;14.90;60.80;;;;;;1486873;40;20036;-61
2021/05/17 01:41:17;;;;;;;1.77;1.10;;;14.90;60.80;;;;;;1488032;39;20024;-60
2021/05/17 01:42:40;;;;;;;1.65;0.82;;;14.90;60.90;;;;;;1486867;40;20047;-61
2021/05/17 01:44:01;;;;;;;0.95;0.85;;;14.90;60.90;;;;;;1486276;40;20028;-61
2021/05/17 01:45:25;;;;;;;0.90;0.70;;;14.90;60.90;;;;;;1486065;40;20029;-61
2021/05/17 01:46:48;;;;;;;1.20;0.80;;;14.90;61.00;;;;;;1484838;40;20068;-61
2021/05/17 01:48:09;;;;;;;1.30;0.80;;;14.80;61.00;;;;;;1487881;40;20032;-61
2021/05/17 01:49:32;;;;;;;2.28;1.00;;;14.80;60.90;;;;;;1486416;39;20035;-61
2021/05/17 01:50:53;;;;;;;0.75;0.75;;;14.90;61.00;;;;;;1488258;39;20042;-60
2021/05/17 01:52:17;;;;;;;0.70;0.70;;;14.80;61.00;;;;;;1489114;39;20032;-61
2021/05/17 01:53:39;;;;;;;0.80;0.80;;;14.80;61.70;;;;;;1486546;40;20048;-61
2021/05/17 01:55:02;;;;;;;1.00;0.80;;;14.80;60.90;;;;;;1481655;40;20037;-61
2021/05/17 01:56:23;;;;;;;0.88;0.70;;;14.80;60.90;;;;;;1484634;40;20063;-61
2021/05/17 01:57:44;;;;;;;1.67;0.90;;;14.80;61.00;;;;;;1485074;40;20125;-61
2021/05/17 01:59:06;;;;;;;0.70;0.70;;;14.80;61.00;;;;;;1487988;40;20032;-61
2021/05/17 02:00:30;;;;;;;0.88;0.70;;;14.80;61.20;;;;;;1484618;40;20039;-61
2021/05/17 02:01:51;;;;;;;2.63;1.00;;;14.80;61.30;;;;;;1486337;40;20024;-61
2021/05/17 02:03:12;;;;;;;1.00;0.90;;;14.80;61.30;;;;;;1485929;40;20039;-61
2021/05/17 02:04:33;;;;;;;1.15;0.70;;;14.80;61.10;;;;;;1487638;40;20087;-61
2021/05/17 02:05:54;;;;;;;1.85;0.80;;;14.80;61.10;;;;;;1483482;40;20284;-61
2021/05/17 02:07:15;;;;;;;0.80;0.77;;;14.80;61.00;;;;;;1484680;40;20388;-61
2021/05/17 02:08:48;;;;;;;0.80;0.70;;;14.80;61.10;;;;;;1487078;39;20024;-61
2021/05/17 02:10:10;;;;;;;0.70;0.60;;;14.80;61.30;;;;;;1487377;40;20051;-61
2021/05/17 02:11:31;;;;;;;1.02;0.70;;;14.80;61.10;;;;;;1484340;39;20044;-61
2021/05/17 02:12:52;;;;;;;1.15;0.60;;;14.80;61.10;;;;;;1486897;39;20393;-61
2021/05/17 02:14:14;;;;;;;2.03;0.80;;;14.80;61.10;;;;;;1483906;40;20285;-61
2021/05/17 02:15:36;;;;;;;1.38;0.90;;;14.80;61.10;;;;;;1485623;40;20031;-60
2021/05/17 02:16:57;;;;;;;0.80;0.80;;;14.80;61.10;;;;;;1483129;40;20079;-61
2021/05/17 02:18:18;;;;;;;1.90;0.73;;;14.80;61.00;;;;;;1484756;40;20036;-61
2021/05/17 02:19:39;;;;;;;1.95;0.90;;;14.80;61.10;;;;;;1486155;40;20346;-61
2021/05/17 02:21:00;;;;;;;0.68;0.63;;;14.80;61.10;;;;;;1485759;40;20024;-61
2021/05/17 02:22:23;;;;;;;0.60;0.60;;;14.80;61.00;;;;;;1486676;40;20392;-61
2021/05/17 02:23:44;;;;;;;2.10;1.00;;;14.80;61.10;;;;;;1486924;40;20054;-61
2021/05/17 02:25:05;;;;;;;0.77;0.77;;;14.80;61.00;;;;;;1487164;40;20032;-60
2021/05/17 02:26:26;;;;;;;1.05;0.80;;;14.80;61.00;;;;;;1487622;40;20032;-61
2021/05/17 02:27:47;;;;;;;0.98;0.85;;;14.80;61.10;;;;;;1488002;40;20099;-61
2021/05/17 02:29:10;;;;;;;1.73;0.73;;;14.80;61.20;;;;;;1486997;40;20592;-61
2021/05/17 02:30:32;;;;;;;0.90;0.80;;;14.80;61.20;;;;;;1486367;40;20028;-60
2021/05/17 02:31:53;;;;;;;1.02;0.80;;;14.80;61.20;;;;;;1486250;40;20051;-60
2021/05/17 02:33:14;;;;;;;1.23;0.73;;;14.80;61.20;;;;;;1487430;40;20040;-61
2021/05/17 02:34:36;;;;;;;1.05;0.70;;;14.80;61.20;;;;;;1487534;40;20028;-61
2021/05/17 02:35:57;;;;;;;0.80;0.80;;;14.70;61.20;;;;;;1487631;40;20083;-61
2021/05/17 02:37:19;;;;;;;1.20;0.70;;;14.70;61.20;;;;;;1485615;40;20370;-60
2021/05/17 02:38:40;;;;;;;0.60;0.60;;;14.80;61.30;;;;;;1486978;40;20040;-60
2021/05/17 02:40:03;;;;;;;1.23;0.90;;;14.80;61.30;;;;;;1487474;39;20025;-60
2021/05/17 02:41:26;;;;;;;0.70;0.70;;;14.80;61.30;;;;;;1485053;39;20021;-61
2021/05/17 02:42:49;;;;;;;1.33;0.73;;;14.80;61.30;;;;;;1486955;40;20039;-60
2021/05/17 02:44:11;;;;;;;0.82;0.70;;;14.70;61.20;;;;;;1484979;39;20020;-61
2021/05/17 02:45:32;;;;;;;0.90;0.73;;;14.80;61.30;;;;;;1488020;39;20068;-60
2021/05/17 02:46:56;;;;;;;2.78;0.90;;;14.80;61.30;;;;;;1487108;39;20032;-60
2021/05/17 02:48:18;;;;;;;1.02;0.60;;;14.80;61.30;;;;;;1486757;40;20040;-60
2021/05/17 02:49:39;;;;;;;0.82;0.80;;;14.70;61.20;;;;;;1487502;40;20040;-61
2021/05/17 02:51:00;;;;;;;0.70;0.70;;;14.80;61.20;;;;;;1486133;40;20024;-60
2021/05/17 02:52:21;;;;;;;0.93;0.70;;;14.80;61.30;;;;;;1484856;40;20036;-60
2021/05/17 02:53:54;;;;;;;0.77;0.75;;;14.70;61.20;;;;;;1487707;39;20036;-60
2021/05/17 02:55:15;;;;;;;1.05;0.93;;;14.80;61.50;;;;;;1487284;39;20107;-60
2021/05/17 02:56:52;;;;;;;0.98;0.73;;;14.80;61.30;;;;;;1485990;40;20060;-61
2021/05/17 02:58:17;;;;;;;1.73;0.80;;;14.80;62.40;;;;;;1487796;39;20047;-60
2021/05/17 03:00:07;;;;;;;0.60;0.60;;;14.80;61.40;;;;;;1486812;39;20048;-60
2021/05/17 03:01:34;;;;;;;;;;;14.80;61.60;;;;;;1489229;39;20063;-61
2021/05/17 03:03:15;;;;;;;0.80;0.80;;;14.80;61.80;;;;;;1487912;39;19942;-61
2021/05/17 03:04:38;;;;;;;1.63;0.90;;;14.80;61.00;;;;;;1487683;39;20252;-61
2021/05/17 03:06:07;;;;;;;0.75;0.75;;;14.80;61.00;;;;;;1489635;39;20012;-61
2021/05/17 03:07:33;;;;;;;0.70;0.70;;;14.80;61.20;;;;;;1487184;39;20036;-61
2021/05/17 03:09:05;;;;;;;0.70;0.70;;;14.80;61.20;;;;;;1487803;39;20048;-61
2021/05/17 03:10:28;;;;;;;1.90;0.55;;;14.80;61.50;;;;;;1485735;40;20068;-62
2021/05/17 03:11:51;;;;;;;1.00;0.95;;;14.70;61.30;;;;;;1487577;39;20129;-61
2021/05/17 03:13:17;;;;;;;3.15;0.90;;;14.70;61.40;;;;;;1487943;40;20036;-61
2021/05/17 03:14:41;;;;;;;0.80;0.77;;;14.70;61.60;;;;;;1484075;40;20044;-61
2021/05/17 03:16:03;;;;;;;1.00;0.90;;;14.70;61.60;;;;;;1483431;40;20358;-60
2021/05/17 03:17:26;;;;;;;1.80;1.00;;;14.80;61.70;;;;;;1480105;40;20086;-60
2021/05/17 03:18:49;;;;;;;0.80;0.80;;;14.80;61.70;;;;;;1484144;40;20394;-59
2021/05/17 03:20:10;;;;;;;0.82;0.73;;;14.70;61.70;;;;;;1485024;40;20039;-60
2021/05/17 03:21:32;;;;;;;1.00;0.85;;;14.80;61.90;;;;;;1485835;40;20052;-60
2021/05/17 03:22:55;;;;;;;0.80;0.80;;;14.70;61.80;;;;;;1487110;40;20035;-60
2021/05/17 03:24:16;;;;;;;1.48;1.10;;;14.70;61.90;;;;;;1487889;40;20034;-60
2021/05/17 03:25:39;;;;;;;1.35;1.05;;;14.80;62.10;;;;;;1487865;40;20301;-60
2021/05/17 03:27:21;;;;;;;1.00;0.93;;;14.70;62.30;;;;;;1487818;40;20709;-61
2021/05/17 03:28:42;;;;;;;2.65;1.00;;;14.80;62.60;;;;;;1488985;39;20054;-60
2021/05/17 03:30:03;;;;;;;1.77;1.00;;;14.70;62.10;;;;;;1487184;40;20079;-61
2021/05/17 03:31:24;;;;;;;1.17;1.00;;;14.80;62.20;;;;;;1486750;40;20359;-60
2021/05/17 03:32:46;;;;;;;1.23;0.93;;;14.70;62.10;;;;;;1487789;39;20039;-60
2021/05/17 03:34:07;;;;;;;1.52;1.05;;;14.70;62.10;;;;;;1488597;39;20048;-61
2021/05/17 03:35:28;;;;;;;1.45;0.90;;;14.80;62.30;;;;;;1487377;40;20056;-60
2021/05/17 03:36:49;;;;;;;2.30;1.00;;;14.70;62.10;;;;;;1486060;40;20040;-60
2021/05/17 03:38:10;;;;;;;1.40;0.88;;;14.70;62.30;;;;;;1486460;39;20088;-60
2021/05/17 03:39:31;;;;;;;1.67;0.98;;;14.80;62.30;;;;;;1487788;40;20032;-60
2021/05/17 03:40:52;;;;;;;0.85;0.80;;;14.80;62.30;;;;;;1486620;40;20073;-60
2021/05/17 03:42:13;;;;;;;1.35;1.00;;;14.70;62.30;;;;;;1487737;40;20270;-60
2021/05/17 03:43:34;;;;;;;1.13;0.93;;;14.80;62.80;;;;;;1485038;40;20085;-61
2021/05/17 03:44:55;;;;;;;1.83;1.10;;;14.70;62.30;;;;;;1487186;40;20109;-61
2021/05/17 03:46:16;;;;;;;0.90;0.90;;;14.70;62.30;;;;;;1486562;39;20354;-60
2021/05/17 03:47:37;;;;;;;0.90;0.90;;;14.80;62.30;;;;;;1486911;40;20028;-60
2021/05/17 03:48:58;;;;;;;2.47;1.17;;;14.70;62.40;;;;;;1485898;40;20037;-60
2021/05/17 03:50:19;;;;;;;1.80;1.27;;;14.80;62.60;;;;;;1488191;40;20040;-60
2021/05/17 03:51:40;;;;;;;1.02;1.02;;;14.80;62.70;;;;;;1487449;40;20044;-60
2021/05/17 03:53:01;;;;;;;3.92;1.25;;;14.80;62.70;;;;;;1484919;40;20028;-60
2021/05/17 03:54:22;;;;;;;1.83;1.10;;;14.80;62.60;;;;;;1487308;40;20098;-60
2021/05/17 03:55:43;;;;;;;1.45;1.20;;;14.80;62.70;;;;;;1487757;40;20063;-61
2021/05/17 03:57:05;;;;;;;0.95;0.80;;;14.80;62.80;;;;;;1488185;40;20085;-60
2021/05/17 03:58:26;;;;;;;1.30;1.20;;;14.80;62.60;;;;;;1486348;40;20346;-60
2021/05/17 03:59:47;;;;;;;1.65;1.02;;;14.80;62.50;;;;;;1487187;40;20036;-61
2021/05/17 04:01:08;;;;;;;1.00;1.00;;;14.80;62.60;;;;;;1487139;40;20118;-60
2021/05/17 04:02:28;;;;;;;1.25;1.00;;;14.80;62.60;;;;;;1487818;40;20128;-60
2021/05/17 04:03:50;;;;;;;1.30;1.20;;;14.80;62.60;;;;;;1485104;40;20033;-60
2021/05/17 04:07:03;;;;;;;1.92;1.10;;;14.80;62.70;;;;;;1487084;40;20202;-61
2021/05/17 04:13:19;;;;;;;1.48;1.35;;;14.90;62.40;;;;;;1486283;39;20029;-60
2021/05/17 04:14:40;;;;;;;1.23;1.10;;;14.80;62.30;;;;;;1485565;40;20294;-60
2021/05/17 04:16:01;;;;;;;1.10;0.85;;;14.80;62.30;;;;;;1488318;39;20031;-61
2021/05/17 04:17:21;;;;;;;1.90;1.10;;;14.90;62.50;;;;;;1487808;39;20057;-60
2021/05/17 04:18:44;;;;;;;1.60;1.00;;;14.80;62.60;;;;;;1488191;39;20047;-61
2021/05/17 04:20:06;;;;;;;1.48;1.25;;;14.80;62.60;;;;;;1487346;40;20261;-61
2021/05/17 04:21:27;;;;;;;1.48;1.00;;;14.80;62.50;;;;;;1487361;40;20028;-61
2021/05/17 04:22:48;;;;;;;1.98;1.05;;;14.80;62.50;;;;;;1487274;40;20252;-61
2021/05/17 04:24:10;;;;;;;1.00;0.90;;;14.90;62.60;;;;;;1485964;40;20041;-61
2021/05/17 04:25:32;;;;;;;1.95;1.45;;;14.80;62.50;;;;;;1487456;40;20068;-61
2021/05/17 04:26:53;;;;;;;1.23;1.13;;;14.80;62.60;;;;;;1487861;40;20464;-60
2021/05/17 04:28:14;;;;;;;1.35;0.90;;;14.80;62.60;;;;;;1488131;40;20016;-61
2021/05/17 04:29:35;;;;;;;4.10;1.20;;;14.80;62.60;;;;;;1487185;39;20122;-60
2021/05/17 04:30:56;;;;;;;2.28;1.15;;;14.90;62.70;;;;;;1485777;39;20419;-61
2021/05/17 04:32:17;;;;;;;1.67;1.23;;;14.90;62.70;;;;;;1482867;40;20371;-60
2021/05/17 04:33:38;;;;;;;3.50;1.20;;;14.90;62.70;;;;;;1487717;39;20148;-61
2021/05/17 04:34:59;;;;;;;1.38;1.05;;;14.90;62.70;;;;;;1487061;40;20028;-61
2021/05/17 04:36:20;;;;;;;2.25;1.10;;;14.90;62.70;;;;;;1485796;40;20044;-61
2021/05/17 04:37:41;;;;;;;1.88;1.10;;;14.90;62.70;;;;;;1490262;39;20335;-60
2021/05/17 04:39:04;;;;;;;1.35;1.00;;;14.90;62.60;;;;;;1486181;39;20036;-61
2021/05/17 04:40:24;;;;;;;1.75;1.20;;;14.90;62.70;;;;;;1487910;39;20044;-61
2021/05/17 04:41:45;;;;;;;1.17;1.00;;;14.90;62.60;;;;;;1487496;40;20040;-60
2021/05/17 04:43:06;;;;;;;1.85;1.30;;;14.90;62.60;;;;;;1485811;40;20032;-60
2021/05/17 04:44:27;;;;;;;1.25;1.13;;;14.90;62.60;;;;;;1487526;40;20314;-61
2021/05/17 04:45:48;;;;;;;2.47;1.23;;;14.90;62.50;;;;;;1487005;40;20111;-60
2021/05/17 04:47:09;;;;;;;1.52;1.10;;;15.00;62.50;;;;;;1488437;39;20028;-60
2021/05/17 04:48:30;;;;;;;2.28;1.48;;;15.00;63.20;;;;;;1486041;40;20055;-60
2021/05/17 04:49:51;;;;;;;1.75;1.27;;;15.00;62.50;;;;;;1486957;39;20258;-60
2021/05/17 04:51:12;;;;;;;1.55;1.20;;;15.00;62.50;;;;;;1484654;40;20025;-60
2021/05/17 04:52:33;;;;;;;1.98;1.00;;;15.00;62.50;;;;;;1487281;40;20035;-60
2021/05/17 04:53:54;;;;;;;3.22;1.30;;;15.00;62.50;;;;;;1481978;40;20041;-60
2021/05/17 04:55:15;;;;;;;2.05;1.20;;;15.00;62.50;;;;;;1484510;40;20021;-60
2021/05/17 04:56:36;;;;;;;3.33;1.30;;;15.00;62.60;;;;;;1487746;40;20044;-60
2021/05/17 04:57:57;;;;;;;2.45;1.40;;;15.00;62.60;;;;;;1486845;40;20025;-60
2021/05/17 04:59:18;;;;;;;3.35;1.38;;;15.00;62.50;;;;;;1488617;39;20032;-60
2021/05/17 05:00:38;;;;;;;3.30;1.30;;;15.00;62.40;;;;;;1487817;40;20040;-60
2021/05/17 05:01:59;;;;;;;3.45;1.20;;;15.00;62.40;;;;;;1485569;39;20031;-60
2021/05/17 05:03:20;;;;;;;3.15;1.38;;;15.00;62.40;;;;;;1487858;39;20044;-60
2021/05/17 05:04:41;;;;;;;3.30;1.42;;;15.00;62.50;;;;;;1486926;39;20310;-60
2021/05/17 05:06:03;;;;;;;1.92;1.30;;;15.00;62.50;;;;;;1487983;39;20248;-60
2021/05/17 05:07:24;;;;;;;2.80;1.48;;;15.10;63.30;;;;;;1485541;39;20556;-60
2021/05/17 05:08:44;;;;;;;1.40;1.10;;;15.10;62.60;;;;;;1487610;40;20036;-60
2021/05/17 05:10:06;;;;;;;3.45;1.35;;;15.00;62.50;;;;;;1487810;40;20243;-60
2021/05/17 05:11:27;;;;;;;4.65;1.40;;;15.10;62.50;;;;;;1488763;39;20036;-60
2021/05/17 05:12:47;;;;;;;1.90;1.10;;;15.10;62.50;;;;;;1485222;39;20040;-60
2021/05/17 05:14:08;;;;;;;1.88;1.23;;;15.10;62.60;;;;;;1485459;39;20230;-60
2021/05/17 05:15:29;;;;;;;2.17;1.25;;;15.10;62.70;;;;;;1487981;39;20246;-60
2021/05/17 05:16:50;;;;;;;1.58;1.00;;;15.10;62.70;;;;;;1487866;39;20028;-60
2021/05/17 05:18:11;;;;;;;5.10;1.30;;;15.10;62.70;;;;;;1484679;40;20069;-60
2021/05/17 05:19:32;;;;;;;3.10;1.10;;;15.10;62.60;;;;;;1486719;39;20027;-60
2021/05/17 05:20:53;;;;;;;3.10;1.33;;;15.20;62.60;;;;;;1485258;39;20064;-60
2021/05/17 05:22:14;;;;;;;1.30;1.00;;;15.20;62.70;;;;;;1486760;40;20115;-60
2021/05/17 05:23:35;;;;;;;2.35;1.15;;;15.20;62.70;;;;;;1485683;39;20487;-61
2021/05/17 05:24:57;;;;;;;1.65;1.00;;;15.20;62.60;;;;;;1487071;39;20064;-60
2021/05/17 05:27:53;;;;;;;1.92;1.00;;;15.20;62.50;;;;;;1485058;39;20124;-60
2021/05/17 05:29:31;;;;;;;2.28;1.10;;;15.30;62.50;;;;;;1487817;39;20109;-61
2021/05/17 05:31:00;;;;;;;3.58;1.08;;;15.30;62.40;;;;;;1486520;40;20032;-60
2021/05/17 05:32:29;;;;;;;1.63;1.20;;;15.30;62.30;;;;;;1484725;39;20334;-61
2021/05/17 05:33:50;;;;;;;1.92;1.20;;;15.30;62.30;;;;;;1486907;40;20128;-61
2021/05/17 05:35:11;;;;;;;1.83;1.02;;;15.30;62.20;;;;;;1484262;40;20036;-61
2021/05/17 05:36:33;;;;;;;1.73;1.00;;;15.30;62.20;;;;;;1487090;40;20051;-61
2021/05/17 05:37:53;;;;;;;2.40;1.23;;;15.30;62.20;;;;;;1483333;40;20137;-61
2021/05/17 05:39:15;;;;;;;2.15;1.10;;;15.30;62.20;;;;;;1483944;40;20036;-61
2021/05/17 05:40:36;;;;;;;2.53;0.95;;;15.40;62.20;;;;;;1487185;39;20169;-61
2021/05/17 05:41:57;;;;;;;2.53;0.93;;;15.40;62.20;;;;;;1482334;40;20036;-60
2021/05/17 05:43:18;;;;;;;4.13;1.30;;;15.40;62.10;;;;;;1486616;39;20103;-62
2021/05/17 05:44:47;;;;;;;2.83;1.20;;;15.40;62.10;;;;;;1486416;40;20080;-61
2021/05/17 05:46:08;;;;;;;2.15;1.08;;;15.40;62.10;;;;;;1487312;39;20713;-62
2021/05/17 05:47:29;;;;;;;1.88;1.20;;;15.40;61.90;;;;;;1487085;39;20311;-61
2021/05/17 05:48:50;;;;;;;2.95;1.17;;;15.40;61.80;;;;;;1487007;40;20043;-60
2021/05/17 05:50:11;;;;;;;1.83;1.13;;;15.40;61.90;;;;;;1487212;40;20246;-62
2021/05/17 05:51:32;;;;;;;1.73;1.10;;;15.40;61.80;;;;;;1485285;40;20032;-61
2021/05/17 05:52:53;;;;;;;1.52;1.05;;;15.40;61.80;;;;;;1484220;39;20036;-61
2021/05/17 05:54:15;;;;;;;3.20;1.60;;;15.40;61.80;;;;;;1487346;40;20032;-61
2021/05/17 05:55:36;;;;;;;1.00;0.90;;;15.40;61.80;;;;;;1486282;40;20036;-60
2021/05/17 05:56:57;;;;;;;2.75;1.23;;;15.50;61.80;;;;;;1486687;39;20024;-61
2021/05/17 05:58:18;;;;;;;2.97;0.93;;;15.50;61.80;;;;;;1487066;40;20136;-61
2021/05/17 05:59:39;;;;;;;2.28;1.00;;;15.50;61.70;;;;;;1487372;40;20047;-61
2021/05/17 06:01:00;;;;;;;4.13;1.40;;;15.50;61.70;;;;;;1486505;39;20064;-61
2021/05/17 06:02:20;;;;;;;2.33;1.10;;;15.50;61.60;;;;;;1487010;40;20036;-62
2021/05/17 06:03:41;;;;;;;4.30;1.25;;;15.50;61.50;;;;;;1484623;40;20272;-61
2021/05/17 06:05:03;;;;;;;6.40;1.30;;;15.50;61.50;;;;;;1486604;40;20109;-61
2021/05/17 06:06:24;;;;;;;4.55;1.70;;;15.50;61.40;;;;;;1486665;40;20048;-61
2021/05/17 06:07:45;;;;;;;2.13;1.00;;;15.50;61.30;;;;;;1485999;40;20036;-61
2021/05/17 06:09:07;;;;;;;1.20;1.10;;;15.50;61.30;;;;;;1487131;39;20038;-61
2021/05/17 06:10:28;;;;;;;2.83;1.00;;;15.50;61.30;;;;;;1486320;40;20036;-62
2021/05/17 06:11:49;;;;;;;1.27;0.98;;;15.50;61.30;;;;;;1486978;40;20647;-61
2021/05/17 06:13:10;;;;;;;1.90;1.08;;;15.50;61.20;;;;;;1487215;40;20075;-61
2021/05/17 06:14:32;;;;;;;3.83;0.95;;;15.50;61.10;;;;;;1486896;40;20032;-62
2021/05/17 06:15:53;;;;;;;4.00;1.48;;;15.50;61.10;;;;;;1484814;40;20029;-62
2021/05/17 06:17:15;;;;;;;2.50;1.00;;;15.60;61.20;;;;;;1486311;40;20515;-61
2021/05/17 06:18:36;;;;;;;4.00;1.30;;;15.60;61.20;;;;;;1486533;40;20036;-62
2021/05/17 06:19:57;;;;;;;2.90;1.20;;;15.60;61.20;;;;;;1488226;39;20029;-61
2021/05/17 06:21:18;;;;;;;1.60;0.98;;;15.60;61.30;;;;;;1483449;40;20097;-62
2021/05/17 06:22:39;;;;;;;4.18;1.33;;;15.60;61.30;;;;;;1484726;40;20072;-62
2021/05/17 06:24:01;;;;;;;1.67;1.25;;;15.60;61.30;;;;;;1488829;39;20024;-62
2021/05/17 06:25:22;;;;;;;1.55;1.15;;;15.60;61.30;;;;;;1487186;40;20036;-61
2021/05/17 06:26:43;;;;;;;3.00;1.25;;;15.70;61.20;;;;;;1485008;39;20084;-62
2021/05/17 06:28:05;;;;;;;2.97;1.10;;;15.70;61.20;;;;;;1486517;40;20020;-61
2021/05/17 06:29:26;;;;;;;2.40;1.10;;;15.70;61.10;;;;;;1486854;40;20040;-61
2021/05/17 06:30:51;;;;;;;3.58;1.02;;;15.70;61.00;;;;;;1484869;40;20031;-62
2021/05/17 06:32:14;;;;;;;1.70;1.15;;;15.80;60.90;;;;;;1487062;39;20029;-61
2021/05/17 06:33:36;;;;;;;1.83;1.23;;;15.70;60.70;;;;;;1486815;39;20478;-61
2021/05/17 06:34:58;;;;;;;1.75;1.05;;;15.80;60.80;;;;;;1479243;40;20468;-61
2021/05/17 06:36:19;;;;;;;4.22;1.30;;;15.80;60.70;;;;;;1489924;39;20051;-61
2021/05/17 06:37:40;;;;;;;3.58;1.38;;;15.80;60.60;;;;;;1490206;39;20048;-61
2021/05/17 06:39:04;;;;;;;2.78;1.00;;;15.80;60.40;;;;;;1491053;39;20023;-61
2021/05/17 06:40:25;;;;;;;1.25;1.15;;;15.80;60.80;;;;;;1486227;40;20137;-61
2021/05/17 06:41:47;;;;;;;4.30;1.65;;;15.80;60.40;;;;;;1489612;39;20036;-61
2021/05/17 06:43:08;;;;;;;3.65;1.02;;;15.80;60.20;;;;;;1491399;39;20031;-62
2021/05/17 06:44:29;;;;;;;3.67;1.10;;;15.80;60.10;;;;;;1489373;39;20047;-61
2021/05/17 06:45:50;;;;;;;1.67;1.10;;;15.80;60.00;;;;;;1491636;39;20107;-60
2021/05/17 06:47:11;;;;;;;2.03;1.20;;;15.80;59.90;;;;;;1491241;39;20030;-61
2021/05/17 06:48:34;;;;;;;1.77;1.15;;;15.80;59.90;;;;;;1491076;39;20365;-62
2021/05/17 06:49:55;;;;;;;0.90;0.75;;;15.90;59.90;;;;;;1491406;39;20142;-61
2021/05/17 06:51:18;;;;;;;3.55;1.17;;;15.80;59.80;;;;;;1489519;39;20121;-60
2021/05/17 06:52:39;;;;;;;2.15;1.10;;;15.80;59.80;;;;;;1485898;40;20047;-62
2021/05/17 06:54:02;;;;;;;1.80;1.17;;;15.90;59.80;;;;;;1489376;39;20024;-62
2021/05/17 06:55:28;;;;;;;3.60;1.27;;;15.90;59.80;;;;;;1487798;39;20024;-62
2021/05/17 06:58:35;;;;;;;4.03;1.38;;;15.90;59.70;;;;;;1491339;39;20695;-62
2021/05/17 07:00:00;;;;;;;4.20;1.23;;;15.90;59.50;;;;;;1489989;39;20034;-61
2021/05/17 07:01:22;;;;;;;2.92;1.10;;;15.90;59.60;;;;;;1489650;39;20024;-62
2021/05/17 07:02:46;;;;;;;4.65;1.63;;;15.90;59.60;;;;;;1490585;39;20072;-61
2021/05/17 07:04:09;;;;;;;1.40;1.10;;;15.90;59.50;;;;;;1490704;39;20024;-61
2021/05/17 07:05:31;;;;;;;2.33;1.20;;;15.90;59.50;;;;;;1489817;39;20361;-62
2021/05/17 07:06:57;;;;;;;2.90;1.00;;;15.90;59.60;;;;;;1490384;39;20028;-62
2021/05/17 07:13:00;;;;;;;4.18;1.27;;;15.90;59.40;;;;;;1491099;39;20024;-62
2021/05/17 07:14:21;;;;;;;3.78;1.30;;;15.90;59.30;;;;;;1491043;39;20319;-59
2021/05/17 07:15:41;;;;;;;2.03;0.93;;;15.90;59.20;;;;;;1490906;39;20028;-62
2021/05/17 07:17:02;;;;;;;1.58;1.30;;;15.90;59.30;;;;;;1489882;39;20031;-62
2021/05/17 07:18:23;;;;;;;3.58;1.42;;;16.00;59.50;;;;;;1490988;39;20038;-62
2021/05/17 07:19:44;;;;;;;4.45;1.38;;;15.90;59.40;;;;;;1491095;39;20616;-62
2021/05/17 07:24:06;;;;;;;1.90;1.25;;;16.00;59.50;;;;;;1489041;39;20036;-60
2021/05/17 07:25:27;;;;;;;2.05;0.90;;;16.00;59.50;;;;;;1488657;39;20323;-61
2021/05/17 07:26:51;;;;;;;2.85;1.05;;;16.00;59.40;;;;;;1489880;39;20055;-61